createdAt,value
2022-10-04T00:01:34.160Z,98388.53
2022-10-04T00:04:49.269Z,98394.63
2022-10-04T00:07:59.564Z,98405.09
2022-10-04T00:11:10.997Z,98388.44
2022-10-04T00:14:22.541Z,98390.06
2022-10-04T00:17:36.456Z,98393.44
2022-10-04T00:21:10.479Z,98397.84
2022-10-04T00:24:24.605Z,98389.91
2022-10-04T00:27:31.916Z,98409.13
2022-10-04T00:30:40.948Z,98397.84
2022-10-04T00:33:52.143Z,98389.06
2022-10-04T00:36:58.815Z,98392.63
2022-10-04T00:40:16.442Z,98390.75
2022-10-04T00:43:27.267Z,98387.19
2022-10-04T00:46:34.877Z,98373.34
2022-10-04T00:49:47.914Z,98371.66
2022-10-04T00:52:58.993Z,98374.44
2022-10-04T00:56:07.550Z,98376.13
2022-10-04T00:59:35.564Z,98380.28
2022-10-04T01:02:54.067Z,98369.97
2022-10-04T01:06:07.483Z,98382.44
2022-10-04T01:09:15.332Z,98375.34
2022-10-04T01:12:36.025Z,98372.69
2022-10-04T01:15:47.344Z,98384.75
2022-10-04T01:18:54.195Z,98368.25
2022-10-04T01:22:14.476Z,98381.28
2022-10-04T01:25:50.856Z,98375.97
2022-10-04T01:29:03.526Z,98373.34
2022-10-04T01:32:10.285Z,98373.19
2022-10-04T01:35:20.645Z,98363.56
2022-10-04T01:38:27.506Z,98367.84
2022-10-04T01:41:44.147Z,98360.84
2022-10-04T01:45:01.028Z,98359.19
2022-10-04T01:48:11.955Z,98348.88
2022-10-04T01:51:23.343Z,98364.63
2022-10-04T01:54:37.043Z,98366.34
2022-10-04T01:57:49.619Z,98362.03
2022-10-04T02:01:03.576Z,98364.72
2022-10-04T02:04:21.898Z,98380.44
2022-10-04T02:07:32.126Z,98377.06
2022-10-04T02:10:43.602Z,98363.53
2022-10-04T02:13:51.903Z,98363.69
2022-10-04T02:17:04.138Z,98355.22
2022-10-04T02:20:16.896Z,98361.56
2022-10-04T02:23:25.785Z,98362.63
2022-10-04T02:26:31.540Z,98362.00
2022-10-04T02:29:40.954Z,98369.16
2022-10-04T02:32:59.974Z,98361.41
2022-10-04T02:36:09.574Z,98363.31
2022-10-04T02:39:20.237Z,98375.41
2022-10-04T02:42:43.425Z,98355.06
2022-10-04T02:45:54.222Z,98349.78
2022-10-04T02:49:08.012Z,98360.16
2022-10-04T02:52:19.362Z,98363.56
2022-10-04T02:55:28.409Z,98362.47
2022-10-04T02:58:35.516Z,98358.94
2022-10-04T03:01:53.606Z,98361.47
2022-10-04T03:05:07.954Z,98370.16
2022-10-04T03:08:15.374Z,98366.78
2022-10-04T03:11:25.235Z,98373.03
2022-10-04T03:14:34.973Z,98376.47
2022-10-04T03:17:43.088Z,98363.38
2022-10-04T03:20:52.635Z,98369.47
2022-10-04T03:24:01.028Z,98371.06
2022-10-04T03:27:12.824Z,98370.22
2022-10-04T03:30:20.342Z,98373.78
2022-10-04T03:33:29.507Z,98378.06
2022-10-04T03:36:38.242Z,98371.06
2022-10-04T03:39:47.319Z,98365.00
2022-10-04T03:42:53.309Z,98368.56
2022-10-04T03:46:00.359Z,98371.94
2022-10-04T03:49:10.986Z,98369.22
2022-10-04T03:52:26.997Z,98381.41
2022-10-04T03:55:38.370Z,98374.31
2022-10-04T03:58:45.938Z,98379.38
2022-10-04T04:02:00.692Z,98397.69
2022-10-04T04:05:16.585Z,98381.25
2022-10-04T04:08:32.012Z,98376.91
2022-10-04T04:11:40.233Z,98378.03
2022-10-04T04:14:47.331Z,98384.09
2022-10-04T04:17:56.113Z,98386.47
2022-10-04T04:21:06.513Z,98390.72
2022-10-04T04:24:25.140Z,98411.78
2022-10-04T04:27:32.934Z,98390.16
2022-10-04T04:30:42.022Z,98411.44
2022-10-04T04:33:52.352Z,98401.25
2022-10-04T04:37:03.373Z,98397.13
2022-10-04T04:40:22.869Z,98405.28
2022-10-04T04:43:31.240Z,98404.72
2022-10-04T04:46:36.941Z,98409.41
2022-10-04T04:49:43.701Z,98412.28
2022-10-04T04:52:52.717Z,98414.28
2022-10-04T04:56:10.439Z,98418.66
2022-10-04T04:59:18.461Z,98432.63
2022-10-04T05:02:33.283Z,98428.09
2022-10-04T05:05:39.295Z,98424.03
2022-10-04T05:08:53.164Z,98440.94
2022-10-04T05:12:09.617Z,98445.28
2022-10-04T05:15:16.341Z,98453.13
2022-10-04T05:18:33.282Z,98449.56
2022-10-04T05:21:42.877Z,98453.13
2022-10-04T05:24:51.555Z,98470.34
2022-10-04T05:28:01.190Z,98463.25
2022-10-04T05:31:35.702Z,98468.34
2022-10-04T05:34:45.615Z,98456.22
2022-10-04T05:38:18.582Z,98469.16
2022-10-04T05:41:33.581Z,98466.81
2022-10-04T05:44:51.280Z,98475.72
2022-10-04T05:47:59.737Z,98479.41
2022-10-04T05:51:18.582Z,98501.88
2022-10-04T05:54:27.060Z,98505.44
2022-10-04T05:57:43.639Z,98497.59
2022-10-04T06:01:12.708Z,98493.88
2022-10-04T06:04:47.154Z,98510.16
2022-10-04T06:08:03.350Z,98517.84
2022-10-04T06:11:18.157Z,98516.69
2022-10-04T06:14:48.820Z,98512.88
2022-10-04T06:18:19.731Z,98526.50
2022-10-04T06:21:28.796Z,98519.19
2022-10-04T06:24:38.632Z,98517.06
2022-10-04T06:27:54.169Z,98529.34
2022-10-04T06:31:24.455Z,98525.81
2022-10-04T06:34:59.187Z,98539.66
2022-10-04T06:38:26.925Z,98536.13
2022-10-04T06:41:45.934Z,98542.59
2022-10-04T06:45:08.267Z,98539.03
2022-10-04T06:48:42.153Z,98550.78
2022-10-04T06:52:17.616Z,98547.97
2022-10-04T06:55:52.947Z,98557.59
2022-10-04T06:59:31.317Z,98555.72
2022-10-04T07:02:43.574Z,98560.06
2022-10-04T07:05:54.960Z,98569.28
2022-10-04T07:09:08.479Z,98583.16
2022-10-04T07:12:17.775Z,98577.59
2022-10-04T07:15:29.517Z,98581.00
2022-10-04T07:18:40.294Z,98572.69
2022-10-04T07:21:57.155Z,98574.81
2022-10-04T07:25:16.603Z,98581.28
2022-10-04T07:28:44.522Z,98584.84
2022-10-04T07:31:54.931Z,98581.13
2022-10-04T07:35:07.356Z,98596.44
2022-10-04T07:38:23.114Z,98595.88
2022-10-04T07:41:37.019Z,98599.09
2022-10-04T07:44:45.965Z,98604.19
2022-10-04T07:47:53.041Z,98593.41
2022-10-04T07:51:09.696Z,98598.47
2022-10-04T07:54:22.447Z,98603.38
2022-10-04T07:57:35.749Z,98604.78
2022-10-04T08:00:51.364Z,98610.94
2022-10-04T08:04:21.642Z,98616.19
2022-10-04T08:07:34.722Z,98617.09
2022-10-04T08:10:50.121Z,98630.50
2022-10-04T08:14:08.139Z,98606.28
2022-10-04T08:17:22.902Z,98622.72
2022-10-04T08:20:38.866Z,98621.00
2022-10-04T08:23:56.107Z,98623.22
2022-10-04T08:27:32.104Z,98642.78
2022-10-04T08:30:59.443Z,98625.16
2022-10-04T08:34:25.833Z,98649.22
2022-10-04T08:37:38.711Z,98629.56
2022-10-04T08:41:14.280Z,98629.38
2022-10-04T08:45:00.873Z,98631.59
2022-10-04T08:48:46.466Z,98644.44
2022-10-04T08:52:37.246Z,98647.66
2022-10-04T08:55:55.997Z,98646.81
2022-10-04T08:59:27.262Z,98651.25
2022-10-04T09:03:13.658Z,98647.16
2022-10-04T09:06:46.652Z,98670.53
2022-10-04T09:10:20.910Z,98655.22
2022-10-04T09:13:46.308Z,98660.25
2022-10-04T09:17:03.832Z,98666.59
2022-10-04T09:20:39.895Z,98668.47
2022-10-04T09:24:12.208Z,98666.31
2022-10-04T09:27:58.584Z,98673.75
2022-10-04T09:31:33.734Z,98675.19
2022-10-04T09:35:07.391Z,98683.22
2022-10-04T09:39:29.606Z,98689.34
2022-10-04T09:43:08.050Z,98691.53
2022-10-04T09:46:29.534Z,98681.63
2022-10-04T09:50:07.442Z,98675.47
2022-10-04T09:53:46.546Z,98691.63
2022-10-04T09:57:09.281Z,98715.69
2022-10-04T10:00:25.352Z,98704.47
2022-10-04T10:04:03.374Z,98691.91
2022-10-04T10:07:26.904Z,98699.22
2022-10-04T10:10:57.592Z,98721.28
2022-10-04T10:14:27.677Z,98707.03
2022-10-04T10:17:45.380Z,98718.13
2022-10-04T10:21:06.135Z,98715.09
2022-10-04T10:24:31.703Z,98723.13
2022-10-04T10:27:59.988Z,98715.31
2022-10-04T10:31:47.095Z,98728.31
2022-10-04T10:35:32.674Z,98717.22
2022-10-04T10:38:55.245Z,98710.47
2022-10-04T10:42:22.056Z,98736.59
2022-10-04T10:45:47.373Z,98727.97
2022-10-04T10:49:12.459Z,98733.00
2022-10-04T10:52:51.969Z,98739.97
2022-10-04T10:56:31.444Z,98735.69
2022-10-04T11:00:30.584Z,98732.19
2022-10-04T11:04:27.378Z,98735.19
2022-10-04T11:07:56.617Z,98734.03
2022-10-04T11:11:42.167Z,98741.13
2022-10-04T11:15:33.234Z,98744.69
2022-10-04T11:19:31.545Z,98735.13
2022-10-04T11:23:28.237Z,98731.75
2022-10-04T11:27:06.767Z,98729.19
2022-10-04T11:30:24.925Z,98755.81
2022-10-04T11:34:16.362Z,98759.19
2022-10-04T11:37:35.936Z,98758.16
2022-10-04T11:41:04.154Z,98735.69
2022-10-04T11:44:33.838Z,98742.56
2022-10-04T11:47:49.506Z,98753.19
2022-10-04T11:51:22.063Z,98751.75
2022-10-04T11:55:08.303Z,98754.69
2022-10-04T11:58:27.104Z,98739.06
2022-10-04T12:02:12.637Z,98743.09
2022-10-04T12:05:28.754Z,98736.63
2022-10-04T12:08:48.433Z,98757.31
2022-10-04T12:12:40.145Z,98763.53
2022-10-04T12:16:06.548Z,98759.75
2022-10-04T12:19:37.539Z,98756.91
2022-10-04T12:23:06.468Z,98748.56
2022-10-04T12:26:40.778Z,98752.84
2022-10-04T12:30:17.601Z,98746.56
2022-10-04T12:33:36.133Z,98754.84
2022-10-04T12:36:58.269Z,98752.59
2022-10-04T12:40:22.836Z,98753.00
2022-10-04T12:43:38.589Z,98758.34
2022-10-04T12:46:59.016Z,98762.09
2022-10-04T12:50:20.661Z,98767.19
2022-10-04T12:53:36.980Z,98772.19
2022-10-04T12:57:04.343Z,98792.50
2022-10-04T13:00:20.206Z,98783.63
2022-10-04T13:03:41.467Z,98778.16
2022-10-04T13:07:06.336Z,98783.81
2022-10-04T13:10:33.002Z,98789.25
2022-10-04T13:14:11.209Z,98781.06
2022-10-04T13:17:35.892Z,98781.91
2022-10-04T13:20:52.567Z,98795.81
2022-10-04T13:24:10.758Z,98786.16
2022-10-04T13:27:21.292Z,98787.00
2022-10-04T13:30:30.125Z,98798.56
2022-10-04T13:33:44.468Z,98791.69
2022-10-04T13:37:06.579Z,98794.16
2022-10-04T13:40:47.617Z,98803.44
2022-10-04T13:44:11.018Z,98796.78
2022-10-04T13:47:37.383Z,98790.22
2022-10-04T13:50:55.790Z,98791.63
2022-10-04T13:54:27.408Z,98806.91
2022-10-04T13:57:46.311Z,98807.00
2022-10-04T14:01:18.449Z,98797.06
2022-10-04T14:05:06.987Z,98797.41
2022-10-04T14:08:37.808Z,98794.09
2022-10-04T14:12:10.784Z,98802.63
2022-10-04T14:16:03.267Z,98798.66
2022-10-04T14:19:59.467Z,98815.72
2022-10-04T14:23:26.663Z,98792.56
2022-10-04T14:27:23.685Z,98797.47
2022-10-04T14:30:43.135Z,98787.25
2022-10-04T14:34:26.995Z,98791.22
2022-10-04T14:38:03.533Z,98779.19
2022-10-04T14:41:45.845Z,98794.63
2022-10-04T14:45:13.477Z,98796.09
2022-10-04T14:48:49.240Z,98793.53
2022-10-04T14:52:08.967Z,98796.28
2022-10-04T14:55:35.261Z,98792.88
2022-10-04T14:58:53.340Z,98800.03
2022-10-04T15:02:39.387Z,98805.13
2022-10-04T15:06:07.163Z,98805.28
2022-10-04T15:09:50.341Z,98808.88
2022-10-04T15:13:11.167Z,98811.59
2022-10-04T15:16:25.500Z,98820.47
2022-10-04T15:19:36.917Z,98821.50
2022-10-04T15:22:50.938Z,98822.31
2022-10-04T15:26:01.285Z,98826.94
2022-10-04T15:29:23.974Z,98828.81
2022-10-04T15:32:38.381Z,98836.13
2022-10-04T15:36:07.321Z,98833.50
2022-10-04T15:39:45.693Z,98836.13
2022-10-04T15:43:07.595Z,98838.84
2022-10-04T15:46:47.911Z,98838.19
2022-10-04T15:50:24.188Z,98842.13
2022-10-04T15:53:48.698Z,98846.81
2022-10-04T15:56:59.443Z,98845.56
2022-10-04T16:00:15.587Z,98844.91
2022-10-04T16:03:32.764Z,98850.34
2022-10-04T16:06:49.392Z,98848.81
2022-10-04T16:10:07.400Z,98852.56
2022-10-04T16:13:48.795Z,98851.06
2022-10-04T16:17:17.724Z,98851.41
2022-10-04T16:21:16.300Z,98857.03
2022-10-04T16:24:45.928Z,98857.56
2022-10-04T16:28:08.296Z,98862.31
2022-10-04T16:31:40.986Z,98867.22
2022-10-04T16:35:00.454Z,98857.19
2022-10-04T16:38:22.717Z,98867.38
2022-10-04T16:41:37.087Z,98874.78
2022-10-04T16:44:55.544Z,98877.72
2022-10-04T16:48:06.080Z,98877.22
2022-10-04T16:51:42.483Z,98878.22
2022-10-04T16:55:24.195Z,98887.53
2022-10-04T16:58:55.878Z,98879.03
2022-10-04T17:02:25.415Z,98882.94
2022-10-04T17:06:03.338Z,98886.81
2022-10-04T17:09:24.234Z,98889.00
2022-10-04T17:12:39.462Z,98889.47
2022-10-04T17:15:52.578Z,98897.91
2022-10-04T17:19:20.845Z,98895.66
2022-10-04T17:22:39.741Z,98903.09
2022-10-04T17:26:03.179Z,98899.84
2022-10-04T17:29:25.747Z,98904.63
2022-10-04T17:32:47.873Z,98907.59
2022-10-04T17:36:23.819Z,98907.84
2022-10-04T17:39:46.645Z,98920.19
2022-10-04T17:43:05.523Z,98916.03
2022-10-04T17:46:23.734Z,98927.44
2022-10-04T17:49:56.210Z,98927.59
2022-10-04T17:53:23.427Z,98925.88
2022-10-04T17:56:36.659Z,98927.72
2022-10-04T17:59:50.457Z,98920.09
2022-10-04T18:03:07.437Z,98922.00
2022-10-04T18:06:23.224Z,98928.47
2022-10-04T18:09:35.861Z,98930.34
2022-10-04T18:12:49.625Z,98924.38
2022-10-04T18:16:06.255Z,98935.88
2022-10-04T18:19:39.321Z,98936.19
2022-10-04T18:22:50.120Z,98938.31
2022-10-04T18:26:01.606Z,98944.81
2022-10-04T18:29:11.252Z,98949.50
2022-10-04T18:32:36.058Z,98942.56
2022-10-04T18:35:55.284Z,98951.34
2022-10-04T18:39:06.716Z,98949.66
2022-10-04T18:42:23.717Z,98954.72
2022-10-04T18:45:32.160Z,98949.78
2022-10-04T18:48:48.090Z,98956.28
2022-10-04T18:52:07.553Z,98962.81
2022-10-04T18:56:11.639Z,98971.72
2022-10-04T18:59:43.381Z,98968.59
2022-10-04T19:02:57.904Z,98981.06
2022-10-04T19:06:14.972Z,98971.66
2022-10-04T19:09:29.659Z,98971.56
2022-10-04T19:12:46.475Z,98981.19
2022-10-04T19:16:17.618Z,98981.31
2022-10-04T19:19:42.753Z,98979.91
2022-10-04T19:23:00.951Z,98979.25
2022-10-04T19:26:32.669Z,98982.25
2022-10-04T19:29:55.306Z,98988.63
2022-10-04T19:33:16.755Z,98999.31
2022-10-04T19:36:34.078Z,98995.06
2022-10-04T19:39:55.014Z,99004.88
2022-10-04T19:43:06.992Z,99000.75
2022-10-04T19:46:27.169Z,99006.88
2022-10-04T19:49:45.481Z,99004.41
2022-10-04T19:52:56.298Z,99008.91
2022-10-04T19:56:09.238Z,99016.00
2022-10-04T19:59:21.183Z,99015.06
2022-10-04T20:02:26.924Z,99015.06
2022-10-04T20:05:33.543Z,99017.84
2022-10-04T20:09:02.263Z,99023.97
2022-10-04T20:12:33.830Z,99023.19
2022-10-04T20:15:49.425Z,99026.78
2022-10-04T20:19:03.603Z,99021.59
2022-10-04T20:22:54.585Z,99031.94
2022-10-04T20:26:06.624Z,99045.25
2022-10-04T20:29:14.985Z,99035.75
2022-10-04T20:33:09.380Z,99045.53
2022-10-04T20:36:35.725Z,99039.78
2022-10-04T20:40:03.655Z,99049.53
2022-10-04T20:43:28.107Z,99055.75
2022-10-04T20:46:43.295Z,99058.56
2022-10-04T20:49:49.629Z,99058.56
2022-10-04T20:52:59.047Z,99064.59
2022-10-04T20:56:27.494Z,99068.88
2022-10-04T20:59:34.347Z,99059.38
2022-10-04T21:02:43.614Z,99058.56
2022-10-04T21:06:03.604Z,99063.78
2022-10-04T21:09:09.303Z,99058.56
2022-10-04T21:12:33.973Z,99058.41
2022-10-04T21:15:39.581Z,99057.50
2022-10-04T21:18:48.867Z,99070.59
2022-10-04T21:21:54.459Z,99068.88
2022-10-04T21:25:03.968Z,99074.91
2022-10-04T21:28:37.582Z,99073.88
2022-10-04T21:31:44.026Z,99077.53
2022-10-04T21:34:54.414Z,99070.69
2022-10-04T21:38:03.164Z,99071.63
2022-10-04T21:41:09.322Z,99072.41
2022-10-04T21:44:15.847Z,99073.31
2022-10-04T21:47:21.984Z,99065.56
2022-10-04T21:50:31.196Z,99063.91
2022-10-04T21:53:36.784Z,99072.75
2022-10-04T21:56:43.781Z,99078.97
2022-10-04T21:59:50.463Z,99080.84
2022-10-04T22:02:57.121Z,99089.78
2022-10-04T22:06:06.752Z,99083.81
2022-10-04T22:09:13.539Z,99072.66
2022-10-04T22:12:19.406Z,99082.38
2022-10-04T22:15:29.837Z,99079.91
2022-10-04T22:18:36.214Z,99074.81
2022-10-04T22:21:45.658Z,99067.22
2022-10-04T22:24:51.226Z,99062.97
2022-10-04T22:27:58.243Z,99054.38
2022-10-04T22:31:03.942Z,99050.03
2022-10-04T22:34:19.456Z,99049.22
2022-10-04T22:37:28.107Z,99055.34
2022-10-04T22:40:34.968Z,99058.91
2022-10-04T22:43:40.642Z,99054.66
2022-10-04T22:46:50.739Z,99062.53
2022-10-04T22:49:57.703Z,99067.84
2022-10-04T22:53:16.644Z,99074.03
2022-10-04T22:56:22.196Z,99082.91
2022-10-04T22:59:38.257Z,99076.84
2022-10-04T23:02:44.378Z,99080.38
2022-10-04T23:05:51.022Z,99076.13
2022-10-04T23:08:59.761Z,99074.41
2022-10-04T23:12:10.384Z,99070.97
2022-10-04T23:15:21.944Z,99075.34
2022-10-04T23:18:29.533Z,99083.28
2022-10-04T23:21:37.961Z,99079.09
2022-10-04T23:24:47.934Z,99079.19
2022-10-04T23:27:53.604Z,99076.69
2022-10-04T23:31:06.750Z,99082.75
2022-10-04T23:34:19.428Z,99076.75
2022-10-04T23:37:28.271Z,99076.00
2022-10-04T23:40:37.141Z,99068.94
2022-10-04T23:43:44.092Z,99068.84
2022-10-04T23:46:49.718Z,99073.97
2022-10-04T23:49:56.743Z,99079.19
2022-10-04T23:53:06.704Z,99079.19
2022-10-04T23:56:22.311Z,99071.28
2022-10-04T23:59:28.893Z,99088.59
